• Join FlightAware (Why Join?)
  • Login
  • US Flag 
 
11:20AM EST


 

Airport Tracker/Info


-or-


 

Live Flight TrackerFlight Track Log ✈ ASQ421T ✈ 26-Aug-2013 ✈ KORD - KFSD

Flight Track Log - Related Links

Times and Time Zones

All times are in EDT time to prevent confusion due to time zone crossing. See the ASQ421T flight status page for this flight to view local times or setup timezone preferences in your user account.

Time Position Orientation Groundspeed Altitude Reporting Facility
EDT Latitude Longitude Course Direction KTS MPH feet Rate Location/Type
09:38PM 42.0000 -87.9500 294° West 168 193 2,000  Level Chicago TRACON
09:39PM 42.0167 -88.0000 294° West 176 203 4,000 1,680 Climbing Chicago TRACON
09:40PM 42.0333 -88.0667 289° West 213 245 5,300 1,380 Climbing Chicago TRACON
09:41PM 42.0475 -88.1361 285° West 227 261 6,500 1,740 Climbing Chicago Center
09:42PM 42.0697 -88.2286 288° West 257 296 8,500 1,620 Climbing Chicago Center
09:43PM 42.0686 -88.3286 269° West 272 313 9,900 960 Climbing Chicago Center
09:44PM 42.0708 -88.4433 272° West 305 351 10,500 660 Climbing Chicago Center
09:45PM 42.0742 -88.5689 272° West 333 383 11,300 1,020 Climbing Chicago Center
09:46PM 42.0794 -88.7317 273° West 361 415 12,600 1,140 Climbing Chicago Center
09:47PM 42.0867 -88.8686 274° West 364 419 13,700 1,080 Climbing Chicago Center
09:48PM 42.0911 -89.0033 273° West 360 414 14,900 1,140 Climbing Chicago Center
09:49PM 42.0967 -89.1386 273° West 359 413 16,100 1,080 Climbing Chicago Center
09:50PM 42.0997 -89.2725 272° West 358 412 17,200 1,020 Climbing Chicago Center
09:51PM 42.1047 -89.4025 273° West 351 404 18,300 1,020 Climbing Chicago Center
09:52PM 42.1072 -89.5331 272° West 347 399 19,400 1,080 Climbing Chicago Center
09:53PM 42.1117 -89.6675 273° West 357 411 20,600 1,200 Climbing Chicago Center
09:54PM 42.1156 -89.8197 272° West 351 404 21,900 1,020 Climbing Chicago Center
09:55PM 42.1181 -89.9283 272° West 350 403 22,800 960 Climbing Chicago Center
09:56PM 42.1200 -90.0872 271° West 356 410 23,900 960 Climbing Chicago Center
09:57PM 42.1219 -90.2203 271° West 359 413 24,900 900 Climbing Chicago Center
09:58PM 42.1244 -90.3525 272° West 357 411 25,800 900 Climbing Chicago Center
09:59PM 42.1258 -90.4842 271° West 356 410 26,800 900 Climbing Chicago Center
10:00PM 42.1281 -90.6169 271° West 358 412 27,700 900 Climbing Chicago Center
10:02PM 42.1292 -90.7508 271° West 360 414 28,700 1,020 Climbing Chicago Center
10:03PM 42.1317 -90.9122 271° West 362 417 29,800 1,020 Climbing Chicago Center
10:04PM 42.1328 -91.0478 271° West 365 420 30,800 900 Climbing Chicago Center
10:05PM 42.1336 -91.1842 271° West 367 422 31,700 1,140 Climbing Chicago Center
10:06PM 42.1342 -91.3178 270° West 362 417 33,200 780 Climbing Chicago Center
10:07PM 42.1536 -91.5503 277° West 363 418 34,000 240 Climbing Minneapolis Center
10:08PM 42.1947 -91.6831 293° West 380 437 34,000  Level Minneapolis Center
10:09PM 42.2369 -91.8228 292° West 395 455 34,000  Level Minneapolis Center
10:10PM 42.2817 -91.9697 292° West 411 473 34,000  Level Minneapolis Center
10:12PM 42.3433 -92.1792 292° West 429 494 34,000  Level Chicago Center
10:13PM 42.3872 -92.3258 292° West 425 489 34,000  Level Chicago Center
10:14PM 42.4306 -92.4722 292° West 422 486 34,000  Level Chicago Center
10:15PM 42.4736 -92.6175 292° West 420 483 34,000  Level Chicago Center
10:16PM 42.5153 -92.7636 291° West 419 482 34,000  Level Chicago Center
10:17PM 42.5658 -92.9397 291° West 422 486 34,000  Level Chicago Center
10:18PM 42.6089 -93.0894 291° West 430 495 34,000  Level Chicago Center
10:19PM 42.6531 -93.2394 292° West 433 498 34,000  Level Chicago Center
10:20PM 42.6944 -93.3903 291° West 430 495 34,000  Level Chicago Center
10:21PM 42.7361 -93.5383 291° West 425 489 34,000  Level Chicago Center
10:22PM 42.7786 -93.6869 291° West 425 489 34,000  Level Chicago Center
10:23PM 42.8203 -93.8361 291° West 424 488 34,000  Level Chicago Center
10:24PM 42.8681 -94.0133 290° West 421 484 34,000  Level Chicago Center
10:25PM 42.9092 -94.1611 291° West 420 483 34,000  Level Chicago Center
10:26PM 42.9514 -94.3092 291° West 419 482 34,000 -240 Level Minneapolis Center
10:27PM 42.9994 -94.4875 290° West 423 487 33,600 -1,380 Descending Minneapolis Center
10:28PM 43.0411 -94.6419 290° West 419 482 31,200 -2,460 Descending Minneapolis Center
10:29PM 43.0803 -94.7894 290° West 413 475 28,700 -2,460 Descending Minneapolis Center
10:30PM 43.1211 -94.9406 290° West 419 482 26,300 -2,460 Descending Minneapolis Center
10:31PM 43.1614 -95.0936 290° West 425 489 23,800 -2,460 Descending Minneapolis Center
10:32PM 43.2017 -95.2464 290° West 428 493 21,300 -2,400 Descending Minneapolis Center
10:33PM 43.2394 -95.3925 290° West 414 476 18,900 -2,400 Descending Minneapolis Center
10:34PM 43.2761 -95.5319 290° West 395 455 16,400 -2,280 Descending Minneapolis Center
10:36PM 43.3125 -95.6725 290° West 392 451 13,900 -2,280 Descending Minneapolis Center
10:37PM 43.3519 -95.8256 290° West 361 415 11,400 -1,740 Descending Minneapolis Center
10:38PM 43.3750 -95.9164 289° West 332 382 10,400 -1,500 Descending Minneapolis Center
10:39PM 43.4064 -96.0364 290° West 292 336 8,400 -1,680 Descending Minneapolis Center
10:40PM 43.4364 -96.1056 301° West 277 319 7,100 -1,560 Descending Minneapolis Center
10:41PM 43.4839 -96.2239 299° West 262 302 5,300 -1,260 Descending Minneapolis Center
10:42PM 43.5103 -96.2903 299° West 255 293 4,600 -360 Descending Minneapolis Center
10:43PM 43.5492 -96.3903 298° West 250 288 4,600 -60 Level Minneapolis Center
10:44PM 43.5892 -96.4928 298° West 250 288 4,500 -480 Descending Minneapolis Center
10:45PM 43.6244 -96.5767 300° West 252 290 3,600 -720 Descending Minneapolis Center
10:46PM 43.6578 -96.6667 297° West 230 265 3,000 -540 Descending Minneapolis Center
10:47PM 43.6339 -96.6950 221° Southwest 153 176 2,500 -600 Descending Minneapolis Center
10:48PM 43.6064 -96.7208 214° Southwest 129 148 1,800 -420 Descending Minneapolis Center
10:49PM 43.5786 -96.7461 213° Southwest 128 147 1,700 -120 Descending Minneapolis Center
10:51PM 43.5820 -96.7419 270° West  Level Estimated
10:58PM 43.5820 -96.7419 270° West  Level Estimated